createdAt,value
2022-10-11T00:00:35.431Z,11.25
2022-10-11T00:01:35.560Z,11.20
2022-10-11T00:02:35.394Z,11.28
2022-10-11T00:03:35.390Z,11.10
2022-10-11T00:04:35.377Z,11.07
2022-10-11T00:05:35.382Z,11.17
2022-10-11T00:06:35.356Z,11.07
2022-10-11T00:07:35.364Z,10.99
2022-10-11T00:08:35.334Z,10.96
2022-10-11T00:09:35.313Z,10.98
2022-10-11T00:10:35.323Z,10.99
2022-10-11T00:11:35.297Z,10.92
2022-10-11T00:12:35.286Z,11.07
2022-10-11T00:13:35.279Z,11.01
2022-10-11T00:14:35.258Z,10.98
2022-10-11T00:15:35.267Z,10.83
2022-10-11T00:16:35.249Z,10.81
2022-10-11T00:17:35.225Z,10.81
2022-10-11T00:18:35.223Z,10.80
2022-10-11T00:19:35.201Z,10.78
2022-10-11T00:20:35.211Z,10.83
2022-10-11T00:21:35.179Z,10.66
2022-10-11T00:22:35.169Z,10.73
2022-10-11T00:23:35.184Z,10.71
2022-10-11T00:24:35.145Z,10.78
2022-10-11T00:25:35.154Z,10.71
2022-10-11T00:26:35.134Z,10.63
2022-10-11T00:27:35.111Z,10.62
2022-10-11T00:28:35.163Z,10.68
2022-10-11T00:29:35.110Z,10.59
2022-10-11T00:30:35.094Z,10.60
2022-10-11T00:31:35.967Z,10.47
2022-10-11T00:32:35.062Z,10.55
2022-10-11T00:33:35.049Z,10.46
2022-10-11T00:34:35.038Z,10.58
2022-10-11T00:35:35.043Z,10.52
2022-10-11T00:36:35.012Z,10.53
2022-10-11T00:37:35.006Z,10.37
2022-10-11T00:38:34.997Z,10.37
2022-10-11T00:39:35.005Z,10.39
2022-10-11T00:40:34.989Z,10.34
2022-10-11T00:41:34.963Z,10.26
2022-10-11T00:42:34.951Z,10.36
2022-10-11T00:43:34.932Z,10.32
2022-10-11T00:44:34.934Z,10.34
2022-10-11T00:45:34.934Z,10.33
2022-10-11T00:46:34.911Z,10.26
2022-10-11T00:47:34.897Z,10.24
2022-10-11T00:48:34.877Z,10.14
2022-10-11T00:49:34.879Z,10.18
2022-10-11T00:50:34.870Z,10.24
2022-10-11T00:51:34.845Z,10.07
2022-10-11T00:52:34.835Z,10.18
2022-10-11T00:53:34.826Z,10.18
2022-10-11T00:54:34.817Z,10.06
2022-10-11T00:55:34.838Z,10.04
2022-10-11T00:56:34.793Z,10.00
2022-10-11T00:57:34.773Z,9.97
2022-10-11T00:58:34.765Z,9.86
2022-10-11T00:59:34.759Z,10.04
2022-10-11T01:00:34.754Z,9.97
2022-10-11T01:01:34.803Z,10.00
2022-10-11T01:02:34.727Z,9.96
2022-10-11T01:03:34.716Z,9.89
2022-10-11T01:04:34.705Z,9.99
2022-10-11T01:05:34.706Z,9.97
2022-10-11T01:06:34.673Z,9.89
2022-10-11T01:07:34.666Z,9.96
2022-10-11T01:08:34.660Z,9.83
2022-10-11T01:09:34.647Z,9.93
2022-10-11T01:10:34.644Z,9.85
2022-10-11T01:11:34.636Z,9.79
2022-10-11T01:12:34.606Z,9.85
2022-10-11T01:13:34.601Z,9.81
2022-10-11T01:14:34.584Z,9.83
2022-10-11T01:15:34.589Z,9.76
2022-10-11T01:16:34.570Z,9.79
2022-10-11T01:17:34.551Z,9.78
2022-10-11T01:18:34.539Z,9.64
2022-10-11T01:19:34.528Z,9.76
2022-10-11T01:20:34.529Z,9.78
2022-10-11T01:21:34.505Z,9.79
2022-10-11T01:22:34.495Z,9.67
2022-10-11T01:23:34.486Z,9.76
2022-10-11T01:24:34.483Z,9.64
2022-10-11T01:25:34.481Z,9.67
2022-10-11T01:26:34.456Z,9.70
2022-10-11T01:27:34.459Z,9.71
2022-10-11T01:28:34.505Z,9.64
2022-10-11T01:29:34.422Z,9.63
2022-10-11T01:30:34.424Z,9.61
2022-10-11T01:31:34.399Z,9.58
2022-10-11T01:32:34.391Z,9.49
2022-10-11T01:33:34.376Z,9.56
2022-10-11T01:34:34.371Z,9.57
2022-10-11T01:35:34.362Z,9.31
2022-10-11T01:36:34.343Z,9.38
2022-10-11T01:37:34.338Z,9.39
2022-10-11T01:38:34.339Z,9.43
2022-10-11T01:39:34.302Z,9.38
2022-10-11T01:40:34.308Z,9.42
2022-10-11T01:41:34.283Z,9.45
2022-10-11T01:42:34.280Z,9.34
2022-10-11T01:43:34.279Z,9.30
2022-10-11T01:44:34.253Z,9.40
2022-10-11T01:45:34.251Z,9.38
2022-10-11T01:46:34.235Z,9.38
2022-10-11T01:47:34.212Z,9.46
2022-10-11T01:48:34.208Z,9.28
2022-10-11T01:49:34.197Z,9.31
2022-10-11T01:50:34.198Z,9.21
2022-10-11T01:51:34.166Z,9.28
2022-10-11T01:52:34.165Z,9.24
2022-10-11T01:53:34.155Z,9.28
2022-10-11T01:54:56.480Z,9.32
2022-10-11T01:55:35.140Z,9.28
2022-10-11T01:56:34.112Z,9.38
2022-10-11T01:57:34.099Z,9.23
2022-10-11T01:58:34.097Z,9.24
2022-10-11T01:59:34.096Z,9.27
2022-10-11T02:00:34.085Z,9.21
2022-10-11T02:01:34.137Z,9.31
2022-10-11T02:02:34.052Z,9.18
2022-10-11T02:03:34.031Z,9.30
2022-10-11T02:04:34.029Z,9.23
2022-10-11T02:05:34.033Z,9.15
2022-10-11T02:06:33.999Z,9.28
2022-10-11T02:07:33.994Z,9.23
2022-10-11T02:08:33.982Z,9.24
2022-10-11T02:09:33.971Z,9.24
2022-10-11T02:10:33.978Z,9.24
2022-10-11T02:11:33.955Z,9.24
2022-10-11T02:12:33.939Z,9.16
2022-10-11T02:13:33.926Z,9.21
2022-10-11T02:14:33.910Z,9.21
2022-10-11T02:15:33.945Z,9.31
2022-10-11T02:16:33.893Z,9.18
2022-10-11T02:17:33.878Z,9.23
2022-10-11T02:18:33.869Z,9.31
2022-10-11T02:19:33.852Z,9.21
2022-10-11T02:20:33.859Z,9.16
2022-10-11T02:21:33.838Z,9.21
2022-10-11T02:22:33.820Z,9.10
2022-10-11T02:23:33.808Z,9.06
2022-10-11T02:24:33.816Z,8.99
2022-10-11T02:25:33.793Z,9.06
2022-10-11T02:26:33.773Z,9.02
2022-10-11T02:27:33.763Z,9.05
2022-10-11T02:28:33.839Z,8.91
2022-10-11T02:29:33.759Z,8.91
2022-10-11T02:30:33.728Z,8.83
2022-10-11T02:31:33.747Z,8.90
2022-10-11T02:32:33.705Z,8.91
2022-10-11T02:33:33.703Z,8.83
2022-10-11T02:34:33.702Z,8.87
2022-10-11T02:35:33.680Z,8.81
2022-10-11T02:36:33.662Z,8.81
2022-10-11T02:37:33.656Z,8.84
2022-10-11T02:38:33.641Z,8.86
2022-10-11T02:39:33.628Z,8.76
2022-10-11T02:40:33.637Z,8.79
2022-10-11T02:41:33.607Z,8.78
2022-10-11T02:42:33.600Z,8.65
2022-10-11T02:43:33.590Z,8.66
2022-10-11T02:44:33.570Z,8.63
2022-10-11T02:45:33.586Z,8.65
2022-10-11T02:46:33.556Z,8.55
2022-10-11T02:47:33.561Z,8.65
2022-10-11T02:48:33.533Z,8.65
2022-10-11T02:49:33.524Z,8.57
2022-10-11T02:50:33.517Z,8.57
2022-10-11T02:51:33.492Z,8.54
2022-10-11T02:52:33.486Z,8.66
2022-10-11T02:53:33.484Z,8.53
2022-10-11T02:54:33.462Z,8.57
2022-10-11T02:55:33.465Z,8.60
2022-10-11T02:56:33.437Z,8.60
2022-10-11T02:57:33.426Z,8.57
2022-10-11T02:58:33.433Z,8.53
2022-10-11T02:59:33.415Z,8.53
2022-10-11T03:00:33.416Z,8.39
2022-10-11T03:01:33.465Z,8.45
2022-10-11T03:02:33.377Z,8.60
2022-10-11T03:03:33.377Z,8.60
2022-10-11T03:04:33.353Z,8.53
2022-10-11T03:05:33.355Z,8.50
2022-10-11T03:06:33.330Z,8.53
2022-10-11T03:07:33.322Z,8.45
2022-10-11T03:08:33.314Z,8.48
2022-10-11T03:09:33.290Z,8.51
2022-10-11T03:10:33.298Z,8.50
2022-10-11T03:11:33.267Z,8.48
2022-10-11T03:12:33.254Z,8.44
2022-10-11T03:13:33.249Z,8.40
2022-10-11T03:14:33.239Z,8.50
2022-10-11T03:15:33.234Z,8.35
2022-10-11T03:16:33.219Z,8.37
2022-10-11T03:17:37.274Z,8.36
2022-10-11T03:18:33.193Z,8.35
2022-10-11T03:19:33.208Z,8.32
2022-10-11T03:20:33.180Z,8.39
2022-10-11T03:21:33.153Z,8.42
2022-10-11T03:22:33.148Z,8.36
2022-10-11T03:23:33.142Z,8.32
2022-10-11T03:24:33.129Z,8.42
2022-10-11T03:25:33.123Z,8.30
2022-10-11T03:26:33.096Z,8.35
2022-10-11T03:27:33.093Z,8.33
2022-10-11T03:28:33.179Z,8.30
2022-10-11T03:29:33.071Z,8.33
2022-10-11T03:30:33.072Z,8.29
2022-10-11T03:31:33.047Z,8.29
2022-10-11T03:32:33.035Z,8.30
2022-10-11T03:33:33.024Z,8.26
2022-10-11T03:34:33.014Z,8.25
2022-10-11T03:35:33.038Z,8.20
2022-10-11T03:36:32.984Z,8.21
2022-10-11T03:37:32.972Z,8.20
2022-10-11T03:38:32.992Z,8.22
2022-10-11T03:39:32.959Z,8.14
2022-10-11T03:40:32.959Z,8.14
2022-10-11T03:41:32.930Z,8.15
2022-10-11T03:42:32.930Z,8.14
2022-10-11T03:43:32.905Z,8.15
2022-10-11T03:44:32.899Z,8.11
2022-10-11T03:45:32.899Z,8.10
2022-10-11T03:46:32.882Z,8.02
2022-10-11T03:47:32.864Z,8.02
2022-10-11T03:48:32.851Z,8.11
2022-10-11T03:49:32.845Z,8.14
2022-10-11T03:50:32.843Z,8.07
2022-10-11T03:51:32.836Z,8.10
2022-10-11T03:52:32.810Z,8.00
2022-10-11T03:53:32.801Z,7.99
2022-10-11T03:54:32.785Z,7.89
2022-10-11T03:55:32.784Z,7.92
2022-10-11T03:56:32.758Z,7.94
2022-10-11T03:57:32.758Z,7.89
2022-10-11T03:58:32.736Z,7.89
2022-10-11T03:59:32.733Z,7.99
2022-10-11T04:00:32.728Z,7.93
2022-10-11T04:01:32.797Z,7.79
2022-10-11T04:02:36.994Z,7.97
2022-10-11T04:03:33.676Z,7.92
2022-10-11T04:04:32.672Z,7.84
2022-10-11T04:05:32.669Z,7.79
2022-10-11T04:06:32.643Z,7.90
2022-10-11T04:07:32.664Z,7.79
2022-10-11T04:08:32.632Z,7.85
2022-10-11T04:09:32.614Z,7.82
2022-10-11T04:10:32.619Z,7.79
2022-10-11T04:11:32.590Z,7.74
2022-10-11T04:12:32.587Z,7.79
2022-10-11T04:13:32.578Z,7.79
2022-10-11T04:14:32.561Z,7.72
2022-10-11T04:15:32.556Z,7.67
2022-10-11T04:16:32.541Z,7.66
2022-10-11T04:17:32.529Z,7.59
2022-10-11T04:18:32.509Z,7.66
2022-10-11T04:19:32.507Z,7.59
2022-10-11T04:20:32.512Z,7.62
2022-10-11T04:21:32.497Z,7.67
2022-10-11T04:22:32.470Z,7.56
2022-10-11T04:23:32.475Z,7.52
2022-10-11T04:24:32.446Z,7.56
2022-10-11T04:25:32.447Z,7.47
2022-10-11T04:26:32.437Z,7.50
2022-10-11T04:27:32.422Z,7.45
2022-10-11T04:28:32.490Z,7.32
2022-10-11T04:29:32.986Z,7.45
2022-10-11T04:30:32.373Z,7.47
2022-10-11T04:31:32.394Z,7.55
2022-10-11T04:32:32.364Z,7.55
2022-10-11T04:33:32.341Z,7.49
2022-10-11T04:34:32.348Z,7.52
2022-10-11T04:35:32.326Z,7.53
2022-10-11T04:36:32.327Z,7.49
2022-10-11T04:37:32.304Z,7.42
2022-10-11T04:38:32.297Z,7.49
2022-10-11T04:39:32.302Z,7.47
2022-10-11T04:40:32.267Z,7.45
2022-10-11T04:41:32.262Z,7.41
2022-10-11T04:42:32.247Z,7.45
2022-10-11T04:43:32.229Z,7.50
2022-10-11T04:44:32.222Z,7.32
2022-10-11T04:45:32.220Z,7.40
2022-10-11T04:46:32.215Z,7.38
2022-10-11T04:47:32.191Z,7.44
2022-10-11T04:48:32.178Z,7.49
2022-10-11T04:49:32.173Z,7.55
2022-10-11T04:50:32.158Z,7.45
2022-10-11T04:51:32.174Z,7.52
2022-10-11T04:52:32.135Z,7.52
2022-10-11T04:53:32.116Z,7.49
2022-10-11T04:54:32.105Z,7.45
2022-10-11T04:55:32.115Z,7.53
2022-10-11T04:56:32.081Z,7.53
2022-10-11T04:57:32.086Z,7.72
2022-10-11T04:58:32.066Z,7.58
2022-10-11T04:59:32.058Z,7.56
2022-10-11T05:00:32.038Z,7.62
2022-10-11T05:01:32.038Z,7.55
2022-10-11T05:02:32.108Z,7.69
2022-10-11T05:03:32.013Z,7.67
2022-10-11T05:04:31.995Z,7.71
2022-10-11T05:05:31.981Z,7.84
2022-10-11T05:06:31.969Z,7.85
2022-10-11T05:07:31.974Z,7.84
2022-10-11T05:08:31.946Z,7.90
2022-10-11T05:09:31.936Z,7.81
2022-10-11T05:10:31.924Z,7.87
2022-10-11T05:11:31.933Z,7.90
2022-10-11T05:12:31.920Z,7.90
2022-10-11T05:13:31.892Z,8.00
2022-10-11T05:14:31.886Z,8.02
2022-10-11T05:15:31.870Z,7.97
2022-10-11T05:16:31.860Z,8.02
2022-10-11T05:17:31.851Z,8.12
2022-10-11T05:18:31.861Z,8.07
2022-10-11T05:19:31.834Z,8.11
2022-10-11T05:20:31.820Z,8.14
2022-10-11T05:21:31.812Z,8.04
2022-10-11T05:22:31.790Z,8.18
2022-10-11T05:23:31.824Z,8.11
2022-10-11T05:24:31.767Z,8.15
2022-10-11T05:25:31.769Z,8.17
2022-10-11T05:26:31.751Z,8.21
2022-10-11T05:27:31.756Z,8.29
2022-10-11T05:28:31.780Z,8.35
2022-10-11T05:29:31.731Z,8.28
2022-10-11T05:30:31.699Z,8.28
2022-10-11T05:31:31.699Z,8.40
2022-10-11T05:32:31.682Z,8.32
2022-10-11T05:33:31.673Z,8.39
2022-10-11T05:34:31.676Z,8.42
2022-10-11T05:35:31.656Z,8.42
2022-10-11T05:36:31.637Z,8.42
2022-10-11T05:37:31.630Z,8.40
2022-10-11T05:38:31.609Z,8.50
2022-10-11T05:39:31.616Z,8.40
2022-10-11T05:40:31.589Z,8.48
2022-10-11T05:41:31.584Z,8.47
2022-10-11T05:42:31.571Z,8.55
2022-10-11T05:43:31.574Z,8.53
2022-10-11T05:44:31.559Z,8.53
2022-10-11T05:45:31.536Z,8.57
2022-10-11T05:46:31.522Z,8.63
2022-10-11T05:47:31.507Z,8.55
2022-10-11T05:48:31.503Z,8.57
2022-10-11T05:49:31.503Z,8.62
2022-10-11T05:50:31.475Z,8.60
2022-10-11T05:51:31.462Z,8.66
2022-10-11T05:52:31.451Z,8.58
2022-10-11T05:53:31.447Z,8.54
2022-10-11T05:54:31.444Z,8.62
2022-10-11T05:55:31.419Z,8.75
2022-10-11T05:56:31.416Z,8.71
2022-10-11T05:57:31.406Z,8.71
2022-10-11T05:58:31.404Z,8.71
2022-10-11T05:59:31.416Z,8.81
2022-10-11T06:00:31.369Z,8.76
2022-10-11T06:01:31.365Z,8.76
2022-10-11T06:02:31.339Z,8.71
2022-10-11T06:03:31.341Z,8.91
2022-10-11T06:04:31.973Z,8.90
2022-10-11T06:05:31.323Z,8.83
2022-10-11T06:06:31.301Z,8.78
2022-10-11T06:07:31.294Z,8.83
2022-10-11T06:08:31.271Z,8.93
2022-10-11T06:09:31.268Z,8.91
2022-10-11T06:10:31.355Z,8.90
2022-10-11T06:11:31.245Z,8.94
2022-10-11T06:12:31.233Z,9.09
2022-10-11T06:13:31.222Z,9.01
2022-10-11T06:14:31.210Z,9.10
2022-10-11T06:15:31.229Z,9.20
2022-10-11T06:16:31.216Z,9.16
2022-10-11T06:17:31.173Z,9.24
2022-10-11T06:18:31.159Z,9.25
2022-10-11T06:19:31.149Z,9.20
2022-10-11T06:20:31.159Z,9.20
2022-10-11T06:21:31.137Z,9.24
2022-10-11T06:22:31.114Z,9.13
2022-10-11T06:23:31.102Z,9.20
2022-10-11T06:24:31.091Z,9.21
2022-10-11T06:25:31.098Z,9.18
2022-10-11T06:26:31.071Z,9.21
2022-10-11T06:27:31.060Z,9.30
2022-10-11T06:28:31.116Z,9.20
2022-10-11T06:29:31.034Z,9.30
2022-10-11T06:30:31.038Z,9.23
2022-10-11T06:31:31.061Z,9.27
2022-10-11T06:32:31.001Z,9.25
2022-10-11T06:33:30.998Z,9.38
2022-10-11T06:34:30.990Z,9.24
2022-10-11T06:35:30.990Z,9.30
2022-10-11T06:36:30.971Z,9.38
2022-10-11T06:37:30.956Z,9.27
2022-10-11T06:38:30.947Z,9.40
2022-10-11T06:39:30.944Z,9.38
2022-10-11T06:40:30.926Z,9.30
2022-10-11T06:41:30.951Z,9.35
2022-10-11T06:42:30.890Z,9.42
2022-10-11T06:43:30.877Z,9.43
2022-10-11T06:44:30.867Z,9.34
2022-10-11T06:45:30.887Z,9.40
2022-10-11T06:46:30.872Z,9.34
2022-10-11T06:47:30.887Z,9.39
2022-10-11T06:48:30.822Z,9.34
2022-10-11T06:49:30.810Z,9.56
2022-10-11T06:50:57.886Z,9.43
2022-10-11T06:51:31.794Z,9.46
2022-10-11T06:52:30.787Z,9.38
2022-10-11T06:53:30.764Z,9.48
2022-10-11T06:54:30.757Z,9.50
2022-10-11T06:55:30.782Z,9.43
2022-10-11T06:56:30.739Z,9.46
2022-10-11T06:57:30.734Z,9.42
2022-10-11T06:58:30.715Z,9.49
2022-10-11T06:59:30.708Z,9.38
2022-10-11T07:00:30.730Z,9.39
2022-10-11T07:01:30.716Z,9.50
2022-10-11T07:02:30.672Z,9.38
2022-10-11T07:03:30.682Z,9.40
2022-10-11T07:04:30.649Z,9.43
2022-10-11T07:05:30.630Z,9.40
2022-10-11T07:06:30.640Z,9.31
2022-10-11T07:07:30.606Z,9.43
2022-10-11T07:08:30.631Z,9.38
2022-10-11T07:09:30.591Z,9.43
2022-10-11T07:10:30.577Z,9.52
2022-10-11T07:11:30.582Z,9.49
2022-10-11T07:12:30.553Z,9.50
2022-10-11T07:13:30.539Z,9.46
2022-10-11T07:14:30.529Z,9.61
2022-10-11T07:15:30.522Z,9.45
2022-10-11T07:16:30.530Z,9.49
2022-10-11T07:17:30.506Z,9.52
2022-10-11T07:18:30.483Z,9.42
2022-10-11T07:19:30.501Z,9.30
2022-10-11T07:20:30.467Z,9.32
2022-10-11T07:21:30.624Z,9.27
2022-10-11T07:22:30.439Z,9.32
2022-10-11T07:23:30.458Z,9.38
2022-10-11T07:24:30.420Z,9.31
2022-10-11T07:25:30.410Z,9.25
2022-10-11T07:26:35.235Z,9.30
2022-10-11T07:27:31.434Z,9.24
2022-10-11T07:28:30.541Z,9.32
2022-10-11T07:29:30.376Z,9.28
2022-10-11T07:30:30.355Z,9.30
2022-10-11T07:31:30.376Z,9.27
2022-10-11T07:32:30.350Z,9.28
2022-10-11T07:33:30.316Z,9.35
2022-10-11T07:34:30.312Z,9.32
2022-10-11T07:35:30.317Z,9.38
2022-10-11T07:36:30.305Z,9.39
2022-10-11T07:37:30.275Z,9.42
2022-10-11T07:38:30.267Z,9.40
2022-10-11T07:39:30.260Z,9.53
2022-10-11T07:40:30.237Z,9.52
2022-10-11T07:41:30.243Z,9.58
2022-10-11T07:42:30.215Z,9.50
2022-10-11T07:43:30.202Z,9.58
2022-10-11T07:44:30.207Z,9.50
2022-10-11T07:45:30.188Z,9.45
2022-10-11T07:46:30.194Z,9.67
2022-10-11T07:47:30.163Z,9.61
2022-10-11T07:48:30.156Z,9.57
2022-10-11T07:49:30.144Z,9.66
2022-10-11T07:50:30.132Z,9.70
2022-10-11T07:51:30.144Z,9.73
2022-10-11T07:52:30.119Z,9.70
2022-10-11T07:53:30.090Z,9.71
2022-10-11T07:54:30.089Z,9.76
2022-10-11T07:55:30.078Z,9.68
2022-10-11T07:56:30.057Z,9.88
2022-10-11T07:57:30.063Z,9.78
2022-10-11T07:58:30.042Z,9.82
2022-10-11T07:59:30.022Z,9.82
2022-10-11T08:00:30.020Z,9.81
2022-10-11T08:01:30.158Z,9.79
2022-10-11T08:02:30.012Z,9.91
2022-10-11T08:03:29.979Z,9.86
2022-10-11T08:04:29.974Z,9.91
2022-10-11T08:05:29.954Z,9.76
2022-10-11T08:06:29.945Z,9.76
2022-10-11T08:07:29.979Z,9.81
2022-10-11T08:08:29.941Z,9.83
2022-10-11T08:09:29.912Z,9.79
2022-10-11T08:10:29.898Z,9.81
2022-10-11T08:11:29.887Z,9.86
2022-10-11T08:12:29.888Z,9.81
2022-10-11T08:13:29.871Z,9.93
2022-10-11T08:14:29.855Z,9.89
2022-10-11T08:15:29.848Z,9.91
2022-10-11T08:16:29.838Z,9.79
2022-10-11T08:17:29.840Z,9.89
2022-10-11T08:18:29.810Z,9.93
2022-10-11T08:19:29.816Z,9.91
2022-10-11T08:20:29.798Z,9.76
2022-10-11T08:21:29.775Z,9.79
2022-10-11T08:22:29.796Z,9.76
2022-10-11T08:23:29.770Z,9.70
2022-10-11T08:24:31.062Z,9.71
2022-10-11T08:25:29.736Z,9.81
2022-10-11T08:26:29.716Z,9.83
2022-10-11T08:27:29.725Z,9.93
2022-10-11T08:28:29.758Z,9.83
2022-10-11T08:29:29.689Z,9.89
2022-10-11T08:30:29.696Z,10.07
2022-10-11T08:31:29.659Z,10.01
2022-10-11T08:32:29.670Z,10.03
2022-10-11T08:33:29.639Z,10.04
2022-10-11T08:34:29.631Z,10.03
2022-10-11T08:35:29.616Z,10.12
2022-10-11T08:36:29.609Z,10.15
2022-10-11T08:37:29.622Z,10.15
2022-10-11T08:38:29.599Z,10.19
2022-10-11T08:39:29.593Z,10.18
2022-10-11T08:40:34.375Z,10.24
2022-10-11T08:41:30.570Z,10.30
2022-10-11T08:42:29.557Z,10.25
2022-10-11T08:43:29.533Z,10.07
2022-10-11T08:44:37.435Z,10.15
2022-10-11T08:45:30.512Z,10.01
2022-10-11T08:46:29.492Z,10.09
2022-10-11T08:47:29.488Z,9.97
2022-10-11T08:48:29.493Z,10.03
2022-10-11T08:49:29.465Z,10.01
2022-10-11T08:50:29.458Z,10.06
2022-10-11T08:51:29.447Z,10.06
2022-10-11T08:52:29.423Z,10.04
2022-10-11T08:53:29.432Z,10.00
2022-10-11T08:54:29.408Z,10.00
2022-10-11T08:55:29.421Z,10.06
2022-10-11T08:56:29.379Z,10.09
2022-10-11T08:57:29.365Z,10.10
2022-10-11T08:58:29.365Z,10.10
2022-10-11T08:59:29.357Z,10.09
2022-10-11T09:00:29.332Z,10.09
2022-10-11T09:01:29.412Z,10.12
2022-10-11T09:02:43.645Z,10.06
2022-10-11T09:03:30.315Z,10.17
2022-10-11T09:04:29.288Z,10.18
2022-10-11T09:05:29.282Z,10.26
2022-10-11T09:06:29.307Z,10.28
2022-10-11T09:07:29.256Z,10.40
2022-10-11T09:08:29.273Z,10.46
2022-10-11T09:09:29.230Z,10.55
2022-10-11T09:10:29.234Z,10.60
2022-10-11T09:11:29.236Z,10.68
2022-10-11T09:12:32.818Z,10.76
2022-10-11T09:13:30.224Z,10.78
2022-10-11T09:14:29.211Z,10.91
2022-10-11T09:15:29.173Z,10.81
2022-10-11T09:16:29.159Z,10.94
2022-10-11T09:17:29.141Z,10.92
2022-10-11T09:18:29.132Z,11.09
2022-10-11T09:19:29.139Z,11.21
2022-10-11T09:20:29.125Z,11.17
2022-10-11T09:21:29.103Z,11.29
2022-10-11T09:22:30.798Z,11.24
2022-10-11T09:23:29.079Z,11.34
2022-10-11T09:24:29.085Z,11.35
2022-10-11T09:25:29.075Z,11.28
2022-10-11T09:26:29.059Z,11.34
2022-10-11T09:27:50.222Z,11.32
2022-10-11T09:28:30.091Z,11.31
2022-10-11T09:29:29.023Z,11.17
2022-10-11T09:30:29.108Z,11.29
2022-10-11T09:31:28.991Z,11.32
2022-10-11T09:32:28.981Z,11.28
2022-10-11T09:33:28.967Z,11.25
2022-10-11T09:34:28.968Z,11.38
2022-10-11T09:35:28.939Z,11.43
2022-10-11T09:36:28.927Z,11.49
2022-10-11T09:37:28.922Z,11.53
2022-10-11T09:38:28.914Z,11.61
2022-10-11T09:39:28.926Z,11.54
2022-10-11T09:40:28.890Z,11.64
2022-10-11T09:41:28.869Z,11.75
2022-10-11T09:42:28.869Z,11.78
2022-10-11T09:43:28.869Z,11.83
2022-10-11T09:44:28.848Z,11.94
2022-10-11T09:45:28.831Z,11.99
2022-10-11T09:46:28.823Z,12.09
2022-10-11T09:47:28.819Z,12.01
2022-10-11T09:48:28.794Z,12.12
2022-10-11T09:49:28.802Z,12.09
2022-10-11T09:50:28.770Z,11.94
2022-10-11T09:51:28.759Z,11.89
2022-10-11T09:52:28.749Z,11.97
2022-10-11T09:53:28.749Z,12.01
2022-10-11T09:54:28.753Z,11.99
2022-10-11T09:55:28.722Z,11.97
2022-10-11T09:56:28.715Z,12.11
2022-10-11T09:57:28.697Z,12.09
2022-10-11T09:58:28.682Z,12.23
2022-10-11T09:59:28.783Z,12.16
2022-10-11T10:00:28.657Z,12.23
2022-10-11T10:01:28.704Z,12.13
2022-10-11T10:02:28.643Z,12.08
2022-10-11T10:03:28.629Z,12.12
2022-10-11T10:04:28.658Z,12.15
2022-10-11T10:05:28.600Z,12.08
2022-10-11T10:06:28.596Z,12.09
2022-10-11T10:07:28.586Z,12.05
2022-10-11T10:08:28.578Z,12.21
2022-10-11T10:09:28.566Z,12.23
2022-10-11T10:10:28.567Z,12.30
2022-10-11T10:11:28.534Z,12.46
2022-10-11T10:12:28.544Z,12.57
2022-10-11T10:13:28.519Z,12.79
2022-10-11T10:14:28.508Z,12.74
2022-10-11T10:15:28.532Z,12.96
2022-10-11T10:16:28.478Z,13.02
2022-10-11T10:17:28.474Z,13.15
2022-10-11T10:18:28.475Z,13.51
2022-10-11T10:19:28.443Z,13.55
2022-10-11T10:20:28.524Z,13.67
2022-10-11T10:21:28.420Z,13.77
2022-10-11T10:22:28.415Z,13.94
2022-10-11T10:23:28.406Z,14.27
2022-10-11T10:24:28.395Z,14.37
2022-10-11T10:25:28.532Z,14.64
2022-10-11T10:26:28.372Z,14.98
2022-10-11T10:27:28.353Z,15.26
2022-10-11T10:28:28.385Z,15.42
2022-10-11T10:29:28.334Z,15.43
2022-10-11T10:30:33.084Z,15.57
2022-10-11T10:31:29.336Z,15.68
2022-10-11T10:32:28.324Z,15.85
2022-10-11T10:33:28.292Z,15.89
2022-10-11T10:34:28.283Z,15.85
2022-10-11T10:35:28.263Z,15.96
2022-10-11T10:36:28.283Z,15.84
2022-10-11T10:37:28.250Z,15.81
2022-10-11T10:38:28.260Z,15.88
2022-10-11T10:39:28.220Z,15.93
2022-10-11T10:40:28.216Z,15.96
2022-10-11T10:41:28.211Z,15.93
2022-10-11T10:42:28.187Z,16.01
2022-10-11T10:43:28.178Z,16.12
2022-10-11T10:44:28.176Z,16.20
2022-10-11T10:45:28.155Z,16.18
2022-10-11T10:46:28.166Z,16.26
2022-10-11T10:47:28.154Z,16.58
2022-10-11T10:48:28.120Z,16.85
2022-10-11T10:49:52.554Z,16.96
2022-10-11T10:50:29.095Z,17.03
2022-10-11T10:51:28.101Z,17.20
2022-10-11T10:52:28.081Z,17.25
2022-10-11T10:53:28.062Z,17.29
2022-10-11T10:54:28.552Z,17.36
2022-10-11T10:55:28.046Z,17.50
2022-10-11T10:56:28.051Z,17.59
2022-10-11T10:57:28.028Z,17.71
2022-10-11T10:58:28.012Z,17.82
2022-10-11T10:59:27.996Z,18.00
2022-10-11T11:00:27.982Z,17.82
2022-10-11T11:01:28.092Z,17.76
2022-10-11T11:02:40.298Z,17.84
2022-10-11T11:03:28.982Z,18.02
2022-10-11T11:04:27.941Z,18.10
2022-10-11T11:05:27.943Z,18.25
2022-10-11T11:06:28.994Z,18.19
2022-10-11T11:07:27.943Z,18.44
2022-10-11T11:08:27.902Z,18.52
2022-10-11T11:09:27.892Z,18.52
2022-10-11T11:10:27.881Z,18.52
2022-10-11T11:11:27.867Z,18.47
2022-10-11T11:12:27.869Z,18.47
2022-10-11T11:13:27.850Z,18.36
2022-10-11T11:14:27.827Z,18.15
2022-10-11T11:15:32.569Z,18.04
2022-10-11T11:16:28.807Z,17.79
2022-10-11T11:17:27.823Z,17.71
2022-10-11T11:18:27.782Z,17.89
2022-10-11T11:19:27.821Z,17.97
2022-10-11T11:20:27.767Z,18.10
2022-10-11T11:21:27.761Z,18.31
2022-10-11T11:22:32.490Z,18.46
2022-10-11T11:23:28.745Z,18.82
2022-10-11T11:24:27.721Z,18.82
2022-10-11T11:25:27.717Z,19.18
2022-10-11T11:26:27.697Z,19.39
2022-10-11T11:27:27.690Z,19.57
2022-10-11T11:28:27.758Z,19.86
2022-10-11T11:29:27.667Z,20.08
2022-10-11T11:30:27.649Z,20.21
2022-10-11T11:31:27.648Z,20.42
2022-10-11T11:32:27.631Z,20.46
2022-10-11T11:33:27.615Z,20.72
2022-10-11T11:34:27.625Z,20.76
2022-10-11T11:35:27.611Z,21.01
2022-10-11T11:36:27.590Z,20.86
2022-10-11T11:37:27.574Z,20.93
2022-10-11T11:38:29.750Z,21.11
2022-10-11T11:39:27.567Z,21.27
2022-10-11T11:40:27.547Z,21.26
2022-10-11T11:41:27.525Z,21.39
2022-10-11T11:42:27.534Z,21.50
2022-10-11T11:43:27.514Z,21.61
2022-10-11T11:44:27.834Z,21.66
2022-10-11T11:45:27.485Z,21.82
2022-10-11T11:46:27.472Z,21.57
2022-10-11T11:47:27.466Z,21.39
2022-10-11T11:48:27.456Z,21.38
2022-10-11T11:49:27.453Z,21.39
2022-10-11T11:50:29.493Z,21.26
2022-10-11T11:51:30.469Z,21.32
2022-10-11T11:52:27.411Z,21.05
2022-10-11T11:53:27.407Z,21.04
2022-10-11T11:54:27.401Z,20.93
2022-10-11T11:55:27.372Z,20.79
2022-10-11T11:56:27.367Z,20.62
2022-10-11T11:57:27.356Z,20.41
2022-10-11T11:58:27.344Z,20.20
2022-10-11T11:59:27.368Z,19.86
2022-10-11T12:00:27.323Z,19.63
2022-10-11T12:01:31.158Z,19.75
2022-10-11T12:02:27.378Z,19.78
2022-10-11T12:03:27.292Z,19.97
2022-10-11T12:04:27.290Z,20.10
2022-10-11T12:05:27.271Z,20.21
2022-10-11T12:06:27.254Z,20.15
2022-10-11T12:07:27.268Z,20.13
2022-10-11T12:08:27.227Z,20.15
2022-10-11T12:09:27.236Z,20.24
2022-10-11T12:10:27.227Z,20.28
2022-10-11T12:11:29.518Z,20.39
2022-10-11T12:12:28.184Z,20.41
2022-10-11T12:13:31.944Z,20.41
2022-10-11T12:14:28.170Z,20.34
2022-10-11T12:15:27.162Z,20.30
2022-10-11T12:16:27.194Z,20.35
2022-10-11T12:17:27.132Z,20.43
2022-10-11T12:18:27.142Z,20.51
2022-10-11T12:19:27.133Z,20.53
2022-10-11T12:20:27.093Z,20.38
2022-10-11T12:21:27.083Z,20.34
2022-10-11T12:22:27.072Z,20.39
2022-10-11T12:23:27.143Z,20.72
2022-10-11T12:24:27.126Z,20.72
2022-10-11T12:25:27.061Z,20.91
2022-10-11T12:26:27.036Z,21.05
2022-10-11T12:27:27.019Z,21.20
2022-10-11T12:28:27.067Z,21.41
2022-10-11T12:29:29.080Z,21.56
2022-10-11T12:30:27.071Z,21.78
2022-10-11T12:31:27.004Z,21.99
2022-10-11T12:32:26.962Z,22.12
2022-10-11T12:33:26.949Z,22.12
2022-10-11T12:34:27.016Z,22.02
2022-10-11T12:35:27.065Z,21.85
2022-10-11T12:36:26.924Z,21.59
2022-10-11T12:37:26.916Z,21.46
2022-10-11T12:38:26.894Z,21.34
2022-10-11T12:39:26.905Z,21.17
2022-10-11T12:40:26.884Z,20.91
2022-10-11T12:41:26.877Z,20.81
2022-10-11T12:42:26.854Z,20.34
2022-10-11T12:43:26.849Z,20.24
2022-10-11T12:44:26.835Z,20.00
2022-10-11T12:45:26.832Z,19.84
2022-10-11T12:46:26.827Z,19.87
2022-10-11T12:47:26.795Z,20.03
2022-10-11T12:48:31.971Z,19.97
2022-10-11T12:49:27.771Z,19.97
2022-10-11T12:50:26.784Z,19.88
2022-10-11T12:51:26.753Z,20.03
2022-10-11T12:52:26.737Z,20.03
2022-10-11T12:53:26.730Z,20.05
2022-10-11T12:54:29.993Z,20.20
2022-10-11T12:55:27.746Z,20.33
2022-10-11T12:56:26.694Z,20.39
2022-10-11T12:57:26.687Z,20.47
2022-10-11T12:58:26.673Z,20.58
2022-10-11T12:59:26.664Z,20.76
2022-10-11T13:00:26.651Z,20.99
2022-10-11T13:01:26.783Z,21.32
2022-10-11T13:02:28.383Z,21.44
2022-10-11T13:03:31.803Z,21.76
2022-10-11T13:04:27.618Z,21.83
2022-10-11T13:05:26.608Z,21.88
2022-10-11T13:06:26.621Z,21.95
2022-10-11T13:07:26.600Z,22.20